sensor_id;sensor_type;location;lat;lon;timestamp;pressure;altitude;pressure_sealevel;temperature;humidity
4410;BME280;2218;51.408;7.208;2023-02-22T00:01:13;99672.88;;;19.62;42.61
4410;BME280;2218;51.408;7.208;2023-02-22T00:03:49;99671.06;;;19.63;42.87
4410;BME280;2218;51.408;7.208;2023-02-22T00:06:20;99673.72;;;19.63;42.61
4410;BME280;2218;51.408;7.208;2023-02-22T00:08:50;99664.97;;;19.62;42.87
4410;BME280;2218;51.408;7.208;2023-02-22T00:11:18;99663.16;;;19.63;42.79
4410;BME280;2218;51.408;7.208;2023-02-22T00:13:47;99659.81;;;19.61;42.71
4410;BME280;2218;51.408;7.208;2023-02-22T00:16:17;99661.59;;;19.60;42.88
4410;BME280;2218;51.408;7.208;2023-02-22T00:18:45;99660.75;;;19.60;42.61
4410;BME280;2218;51.408;7.208;2023-02-22T00:21:13;99656.50;;;19.57;42.87
4410;BME280;2218;51.408;7.208;2023-02-22T00:23:43;99657.34;;;19.58;42.81
4410;BME280;2218;51.408;7.208;2023-02-22T00:26:14;99649.56;;;19.56;42.78
4410;BME280;2218;51.408;7.208;2023-02-22T00:28:47;99649.56;;;19.56;42.70
4410;BME280;2218;51.408;7.208;2023-02-22T00:31:14;99653.16;;;19.55;42.76
4410;BME280;2218;51.408;7.208;2023-02-22T00:33:42;99642.69;;;19.54;42.87
4410;BME280;2218;51.408;7.208;2023-02-22T00:36:11;99651.47;;;19.54;42.90
4410;BME280;2218;51.408;7.208;2023-02-22T00:38:40;99646.28;;;19.53;42.80
4410;BME280;2218;51.408;7.208;2023-02-22T00:41:07;99645.44;;;19.52;42.96
4410;BME280;2218;51.408;7.208;2023-02-22T00:43:35;99641.97;;;19.52;42.86
4410;BME280;2218;51.408;7.208;2023-02-22T00:46:03;99640.28;;;19.51;42.97
4410;BME280;2218;51.408;7.208;2023-02-22T00:48:30;99642.94;;;19.51;42.89
4410;BME280;2218;51.408;7.208;2023-02-22T00:50:57;99640.41;;;19.49;43.04
4410;BME280;2218;51.408;7.208;2023-02-22T00:53:25;99639.47;;;19.50;42.77
4410;BME280;2218;51.408;7.208;2023-02-22T00:55:52;99638.63;;;19.50;43.04
4410;BME280;2218;51.408;7.208;2023-02-22T00:58:20;99633.56;;;19.47;43.05
4410;BME280;2218;51.408;7.208;2023-02-22T01:00:49;99633.56;;;19.47;43.09
4410;BME280;2218;51.408;7.208;2023-02-22T01:03:19;99631.88;;;19.46;43.08
4410;BME280;2218;51.408;7.208;2023-02-22T01:05:46;99631.88;;;19.46;43.03
4410;BME280;2218;51.408;7.208;2023-02-22T01:08:15;99626.59;;;19.46;43.05
4410;BME280;2218;51.408;7.208;2023-02-22T01:10:43;99623.22;;;19.44;43.06
4410;BME280;2218;51.408;7.208;2023-02-22T01:13:12;99622.50;;;19.42;42.99
4410;BME280;2218;51.408;7.208;2023-02-22T01:15:41;99622.50;;;19.42;43.28
4410;BME280;2218;51.408;7.208;2023-02-22T01:18:11;99624.28;;;19.41;43.07
4410;BME280;2218;51.408;7.208;2023-02-22T01:20:43;99623.47;;;19.41;43.20
4410;BME280;2218;51.408;7.208;2023-02-22T01:23:14;99612.91;;;19.41;43.21
4410;BME280;2218;51.408;7.208;2023-02-22T01:25:42;99607.72;;;19.39;43.18
4410;BME280;2218;51.408;7.208;2023-02-22T01:28:11;99601.63;;;19.38;42.94
4410;BME280;2218;51.408;7.208;2023-02-22T01:30:38;99609.53;;;19.38;43.21
4410;BME280;2218;51.408;7.208;2023-02-22T01:33:07;99600.91;;;19.36;43.39
4410;BME280;2218;51.408;7.208;2023-02-22T01:35:36;99593.97;;;19.35;43.17
4410;BME280;2218;51.408;7.208;2023-02-22T01:38:07;99592.28;;;19.34;43.05
4410;BME280;2218;51.408;7.208;2023-02-22T01:40:37;99590.47;;;19.35;43.31
4410;BME280;2218;51.408;7.208;2023-02-22T01:43:17;99590.56;;;19.33;43.08
4410;BME280;2218;51.408;7.208;2023-02-22T01:45:53;99589.72;;;19.33;43.37
4410;BME280;2218;51.408;7.208;2023-02-22T01:48:28;99584.56;;;19.31;43.13
4410;BME280;2218;51.408;7.208;2023-02-22T01:51:00;99581.09;;;19.31;43.30
4410;BME280;2218;51.408;7.208;2023-02-22T01:53:35;99580.28;;;19.30;43.29
4410;BME280;2218;51.408;7.208;2023-02-22T01:56:06;99575.84;;;19.31;43.30
4410;BME280;2218;51.408;7.208;2023-02-22T01:58:38;99575.97;;;19.29;43.43
4410;BME280;2218;51.408;7.208;2023-02-22T02:01:08;99578.59;;;19.29;43.35
4410;BME280;2218;51.408;7.208;2023-02-22T02:03:38;99578.59;;;19.29;43.08
4410;BME280;2218;51.408;7.208;2023-02-22T02:06:12;99578.69;;;19.28;43.36
4410;BME280;2218;51.408;7.208;2023-02-22T02:08:50;99571.72;;;19.27;43.30
4410;BME280;2218;51.408;7.208;2023-02-22T02:11:22;99571.84;;;19.25;43.18
4410;BME280;2218;51.408;7.208;2023-02-22T02:13:50;99577.97;;;19.26;43.20
4410;BME280;2218;51.408;7.208;2023-02-22T02:16:20;99571.84;;;19.25;43.27
4410;BME280;2218;51.408;7.208;2023-02-22T02:18:48;99572.78;;;19.24;43.24
4410;BME280;2218;51.408;7.208;2023-02-22T02:25:18;99565.81;;;19.23;43.34
4410;BME280;2218;51.408;7.208;2023-02-22T02:28:27;99565.13;;;19.21;43.46
4410;BME280;2218;51.408;7.208;2023-02-22T02:31:33;99564.28;;;19.21;43.63
4410;BME280;2218;51.408;7.208;2023-02-22T02:34:16;99569.53;;;19.21;43.41
4410;BME280;2218;51.408;7.208;2023-02-22T02:36:56;99566.06;;;19.20;43.39
4410;BME280;2218;51.408;7.208;2023-02-22T02:39:32;99558.16;;;19.20;43.52
4410;BME280;2218;51.408;7.208;2023-02-22T02:42:06;99552.97;;;19.19;43.32
4410;BME280;2218;51.408;7.208;2023-02-22T02:44:40;99547.72;;;19.19;43.20
4410;BME280;2218;51.408;7.208;2023-02-22T02:47:16;99547.84;;;19.17;43.56
4410;BME280;2218;51.408;7.208;2023-02-22T02:49:50;99547.84;;;19.17;43.52
4410;BME280;2218;51.408;7.208;2023-02-22T02:52:24;99537.28;;;19.17;43.51
4410;BME280;2218;51.408;7.208;2023-02-22T02:54:54;99538.97;;;19.18;43.16
4410;BME280;2218;51.408;7.208;2023-02-22T02:57:22;99539.72;;;19.20;43.33
4410;BME280;2218;51.408;7.208;2023-02-22T02:59:49;99536.97;;;19.22;43.33
4410;BME280;2218;51.408;7.208;2023-02-22T03:02:37;99529.06;;;19.22;43.37
4410;BME280;2218;51.408;7.208;2023-02-22T03:05:29;99528.84;;;19.25;43.28
4410;BME280;2218;51.408;7.208;2023-02-22T03:08:08;99525.34;;;19.24;43.12
4410;BME280;2218;51.408;7.208;2023-02-22T03:10:50;99527.78;;;19.27;43.10
4410;BME280;2218;51.408;7.208;2023-02-22T03:13:29;99525.16;;;19.27;43.14
4410;BME280;2218;51.408;7.208;2023-02-22T03:16:14;99524.19;;;19.28;43.10
4410;BME280;2218;51.408;7.208;2023-02-22T03:18:53;99518.91;;;19.28;43.21
4410;BME280;2218;51.408;7.208;2023-02-22T03:21:31;99513.66;;;19.28;42.96
4410;BME280;2218;51.408;7.208;2023-02-22T03:24:08;99512.72;;;19.29;42.95
4410;BME280;2218;51.408;7.208;2023-02-22T03:26:45;99506.50;;;19.30;43.02
4410;BME280;2218;51.408;7.208;2023-02-22T03:29:19;99510.09;;;19.29;43.19
4410;BME280;2218;51.408;7.208;2023-02-22T03:31:53;99506.50;;;19.30;43.06
4410;BME280;2218;51.408;7.208;2023-02-22T03:34:32;99508.16;;;19.31;43.17
4410;BME280;2218;51.408;7.208;2023-02-22T03:37:06;99501.22;;;19.30;42.87
4410;BME280;2218;51.408;7.208;2023-02-22T03:39:42;99500.25;;;19.31;43.04
4410;BME280;2218;51.408;7.208;2023-02-22T03:42:17;99497.63;;;19.31;42.98
4410;BME280;2218;51.408;7.208;2023-02-22T03:44:48;99500.25;;;19.31;43.05
4410;BME280;2218;51.408;7.208;2023-02-22T03:47:22;99489.72;;;19.31;43.15
4410;BME280;2218;51.408;7.208;2023-02-22T03:49:59;99493.19;;;19.32;43.22
4410;BME280;2218;51.408;7.208;2023-02-22T03:52:34;99488.75;;;19.32;43.11
4410;BME280;2218;51.408;7.208;2023-02-22T03:55:04;99486.13;;;19.32;43.23
4410;BME280;2218;51.408;7.208;2023-02-22T03:57:40;99483.50;;;19.32;42.96
4410;BME280;2218;51.408;7.208;2023-02-22T04:00:12;99483.50;;;19.32;43.09
4410;BME280;2218;51.408;7.208;2023-02-22T04:02:40;99481.69;;;19.33;43.09
4410;BME280;2218;51.408;7.208;2023-02-22T04:05:11;99484.34;;;19.33;42.99
4410;BME280;2218;51.408;7.208;2023-02-22T04:07:40;99483.50;;;19.32;43.00
4410;BME280;2218;51.408;7.208;2023-02-22T04:10:09;99481.81;;;19.31;42.99
4410;BME280;2218;51.408;7.208;2023-02-22T04:12:37;99481.69;;;19.33;42.89
4410;BME280;2218;51.408;7.208;2023-02-22T04:15:08;99475.59;;;19.32;42.93
4410;BME280;2218;51.408;7.208;2023-02-22T04:17:35;99479.06;;;19.33;43.04
4410;BME280;2218;51.408;7.208;2023-02-22T04:20:04;99471.16;;;19.33;42.82
4410;BME280;2218;51.408;7.208;2023-02-22T04:22:42;99472.97;;;19.32;42.81
4410;BME280;2218;51.408;7.208;2023-02-22T04:25:10;99476.44;;;19.33;42.72
4410;BME280;2218;51.408;7.208;2023-02-22T04:27:37;99472.97;;;19.32;42.83
4410;BME280;2218;51.408;7.208;2023-02-22T04:30:05;99472.97;;;19.32;42.93
4410;BME280;2218;51.408;7.208;2023-02-22T04:32:34;99474.63;;;19.33;42.74
4410;BME280;2218;51.408;7.208;2023-02-22T04:35:01;99474.63;;;19.33;43.01
4410;BME280;2218;51.408;7.208;2023-02-22T04:37:29;99474.63;;;19.33;42.66
4410;BME280;2218;51.408;7.208;2023-02-22T04:40:03;99475.59;;;19.32;42.70
4410;BME280;2218;51.408;7.208;2023-02-22T04:42:33;99474.63;;;19.33;42.77
4410;BME280;2218;51.408;7.208;2023-02-22T04:45:02;99474.63;;;19.33;42.81
4410;BME280;2218;51.408;7.208;2023-02-22T04:47:29;99479.91;;;19.33;42.68
4410;BME280;2218;51.408;7.208;2023-02-22T04:49:57;99479.06;;;19.33;42.57
4410;BME280;2218;51.408;7.208;2023-02-22T04:52:25;99471.16;;;19.33;42.61
4410;BME280;2218;51.408;7.208;2023-02-22T04:54:52;99474.63;;;19.33;42.50
4410;BME280;2218;51.408;7.208;2023-02-22T04:57:21;99471.06;;;19.34;42.67
4410;BME280;2218;51.408;7.208;2023-02-22T04:59:49;99464.94;;;19.34;42.68
4410;BME280;2218;51.408;7.208;2023-02-22T05:02:17;99472.00;;;19.33;42.54
4410;BME280;2218;51.408;7.208;2023-02-22T05:04:44;99465.78;;;19.34;42.47
4410;BME280;2218;51.408;7.208;2023-02-22T05:07:11;99471.06;;;19.34;42.38
4410;BME280;2218;51.408;7.208;2023-02-22T05:09:39;99472.75;;;19.35;42.46
4410;BME280;2218;51.408;7.208;2023-02-22T05:12:06;99461.38;;;19.35;42.11
4410;BME280;2218;51.408;7.208;2023-02-22T05:14:34;99462.19;;;19.35;42.30
4410;BME280;2218;51.408;7.208;2023-02-22T05:17:02;99462.19;;;19.35;42.30
4410;BME280;2218;51.408;7.208;2023-02-22T05:19:29;99455.97;;;19.36;42.26
4410;BME280;2218;51.408;7.208;2023-02-22T05:21:56;99457.53;;;19.39;42.37
4410;BME280;2218;51.408;7.208;2023-02-22T05:24:23;99458.16;;;19.43;42.11
4410;BME280;2218;51.408;7.208;2023-02-22T05:26:50;99460.56;;;19.46;42.01
4410;BME280;2218;51.408;7.208;2023-02-22T05:29:18;99456.75;;;19.50;42.08
4410;BME280;2218;51.408;7.208;2023-02-22T05:31:47;99455.78;;;19.51;41.79
4410;BME280;2218;51.408;7.208;2023-02-22T05:34:15;99461.69;;;19.54;41.98
4410;BME280;2218;51.408;7.208;2023-02-22T05:36:42;99456.28;;;19.56;41.93
4410;BME280;2218;51.408;7.208;2023-02-22T05:39:09;99452.69;;;19.57;41.71
4410;BME280;2218;51.408;7.208;2023-02-22T05:41:36;99453.41;;;19.59;41.81
4410;BME280;2218;51.408;7.208;2023-02-22T05:44:04;99449.88;;;19.60;41.82
4410;BME280;2218;51.408;7.208;2023-02-22T05:46:31;99446.28;;;19.61;41.64
4410;BME280;2218;51.408;7.208;2023-02-22T05:48:59;99441.72;;;19.63;41.70
4410;BME280;2218;51.408;7.208;2023-02-22T05:51:26;99444.34;;;19.63;41.51
4410;BME280;2218;51.408;7.208;2023-02-22T05:53:53;99442.47;;;19.65;41.47
4410;BME280;2218;51.408;7.208;2023-02-22T05:56:22;99444.13;;;19.66;41.56
4410;BME280;2218;51.408;7.208;2023-02-22T05:58:49;99442.22;;;19.68;41.36
4410;BME280;2218;51.408;7.208;2023-02-22T06:01:16;99441.28;;;19.69;41.85
4410;BME280;2218;51.408;7.208;2023-02-22T06:03:46;99436.94;;;19.68;41.24
4410;BME280;2218;51.408;7.208;2023-02-22T06:06:16;99434.22;;;19.70;41.37
4410;BME280;2218;51.408;7.208;2023-02-22T06:08:45;99433.38;;;19.69;41.18
4410;BME280;2218;51.408;7.208;2023-02-22T06:11:12;99436.72;;;19.71;41.16
4410;BME280;2218;51.408;7.208;2023-02-22T06:13:40;99435.75;;;19.72;41.19
4410;BME280;2218;51.408;7.208;2023-02-22T06:16:07;99433.13;;;19.72;41.32
4410;BME280;2218;51.408;7.208;2023-02-22T06:18:34;99425.09;;;19.74;41.17
4410;BME280;2218;51.408;7.208;2023-02-22T06:21:01;99432.91;;;19.75;41.11
4410;BME280;2218;51.408;7.208;2023-02-22T06:23:29;99440.69;;;19.77;40.94
4410;BME280;2218;51.408;7.208;2023-02-22T06:25:56;99428.47;;;19.76;40.95
4410;BME280;2218;51.408;7.208;2023-02-22T06:28:23;99438.88;;;19.77;40.91
4410;BME280;2218;51.408;7.208;2023-02-22T06:30:51;99426.53;;;19.78;40.94
4410;BME280;2218;51.408;7.208;2023-02-22T06:33:18;99432.66;;;19.78;40.79
4410;BME280;2218;51.408;7.208;2023-02-22T06:35:45;99429.09;;;19.79;40.82
4410;BME280;2218;51.408;7.208;2023-02-22T06:38:20;99430.75;;;19.80;40.88
4410;BME280;2218;51.408;7.208;2023-02-22T06:40:49;99423.81;;;19.79;40.77
4410;BME280;2218;51.408;7.208;2023-02-22T06:43:16;99428.97;;;19.81;40.64
4410;BME280;2218;51.408;7.208;2023-02-22T06:45:43;99433.13;;;19.83;40.76
4410;BME280;2218;51.408;7.208;2023-02-22T06:48:10;99439.38;;;19.82;40.63
4410;BME280;2218;51.408;7.208;2023-02-22T06:50:37;99440.13;;;19.84;40.51
4410;BME280;2218;51.408;7.208;2023-02-22T06:53:04;99436.63;;;19.84;40.47
4410;BME280;2218;51.408;7.208;2023-02-22T06:55:33;99428.72;;;19.84;40.54
4410;BME280;2218;51.408;7.208;2023-02-22T06:58:03;99428.59;;;19.85;40.55
4410;BME280;2218;51.408;7.208;2023-02-22T07:00:31;99423.34;;;19.85;40.56
4410;BME280;2218;51.408;7.208;2023-02-22T07:02:59;99425.84;;;19.87;40.39
4410;BME280;2218;51.408;7.208;2023-02-22T07:05:27;99430.06;;;19.90;40.53
4410;BME280;2218;51.408;7.208;2023-02-22T07:08:01;99419.50;;;19.90;40.67
4410;BME280;2218;51.408;7.208;2023-02-22T07:10:31;99429.09;;;19.91;40.72
4410;BME280;2218;51.408;7.208;2023-02-22T07:12:58;99422.03;;;19.91;40.71
4410;BME280;2218;51.408;7.208;2023-02-22T07:15:30;99415.78;;;19.92;40.74
4410;BME280;2218;51.408;7.208;2023-02-22T07:17:58;99420.94;;;19.94;40.64
4410;BME280;2218;51.408;7.208;2023-02-22T07:20:27;99418.28;;;19.94;41.04
4410;BME280;2218;51.408;7.208;2023-02-22T07:22:55;99420.94;;;19.94;40.75
4410;BME280;2218;51.408;7.208;2023-02-22T07:25:22;99413.88;;;19.94;40.94
4410;BME280;2218;51.408;7.208;2023-02-22T07:27:50;99419.03;;;19.96;41.04
4410;BME280;2218;51.408;7.208;2023-02-22T07:32:51;99417.94;;;19.98;41.06
4410;BME280;2218;51.408;7.208;2023-02-22T07:35:23;99419.41;;;20.02;40.86
4410;BME280;2218;51.408;7.208;2023-02-22T07:37:50;99414.13;;;20.02;41.05
4410;BME280;2218;51.408;7.208;2023-02-22T07:40:17;99414.13;;;20.02;40.98
4410;BME280;2218;51.408;7.208;2023-02-22T07:42:53;99417.50;;;20.04;41.00
4410;BME280;2218;51.408;7.208;2023-02-22T07:45:22;99414.72;;;20.06;40.92
4410;BME280;2218;51.408;7.208;2023-02-22T07:47:48;99416.41;;;20.07;40.90
4410;BME280;2218;51.408;7.208;2023-02-22T07:50:19;99408.38;;;20.08;41.16
4410;BME280;2218;51.408;7.208;2023-02-22T07:52:49;99410.06;;;20.09;40.92
4410;BME280;2218;51.408;7.208;2023-02-22T07:55:19;99412.56;;;20.11;41.19
4410;BME280;2218;51.408;7.208;2023-02-22T07:57:47;99400.34;;;20.10;41.08
4410;BME280;2218;51.408;7.208;2023-02-22T08:00:20;99402.88;;;20.11;41.04
4410;BME280;2218;51.408;7.208;2023-02-22T08:02:48;99405.50;;;20.11;41.11
4410;BME280;2218;51.408;7.208;2023-02-22T08:05:16;99400.94;;;20.13;41.30
4410;BME280;2218;51.408;7.208;2023-02-22T08:07:43;99398.19;;;20.15;41.30
4410;BME280;2218;51.408;7.208;2023-02-22T08:10:12;99399.88;;;20.16;41.36
4410;BME280;2218;51.408;7.208;2023-02-22T08:12:40;99389.09;;;20.19;41.18
4410;BME280;2218;51.408;7.208;2023-02-22T08:15:15;99390.75;;;20.20;41.29
4410;BME280;2218;51.408;7.208;2023-02-22T08:17:42;99394.09;;;20.22;41.17
4410;BME280;2218;51.408;7.208;2023-02-22T08:20:09;99387.84;;;20.23;41.36
4410;BME280;2218;51.408;7.208;2023-02-22T08:22:38;99391.34;;;20.24;41.33
4410;BME280;2218;51.408;7.208;2023-02-22T08:25:06;99386.94;;;20.24;41.37
4410;BME280;2218;51.408;7.208;2023-02-22T08:27:33;99385.69;;;20.28;41.52
4410;BME280;2218;51.408;7.208;2023-02-22T08:30:00;99383.94;;;20.29;41.38
4410;BME280;2218;51.408;7.208;2023-02-22T08:32:27;99382.97;;;20.30;41.26
4410;BME280;2218;51.408;7.208;2023-02-22T08:34:54;99386.44;;;20.30;41.35
4410;BME280;2218;51.408;7.208;2023-02-22T08:37:21;99382.84;;;20.31;41.47
4410;BME280;2218;51.408;7.208;2023-02-22T08:39:49;99384.50;;;20.32;41.60
4410;BME280;2218;51.408;7.208;2023-02-22T08:42:16;99380.91;;;20.33;41.61
4410;BME280;2218;51.408;7.208;2023-02-22T08:44:43;99378.03;;;20.36;41.41
4410;BME280;2218;51.408;7.208;2023-02-22T08:47:10;99376.09;;;20.38;41.46
4410;BME280;2218;51.408;7.208;2023-02-22T08:49:36;99373.47;;;20.38;41.37
4410;BME280;2218;51.408;7.208;2023-02-22T08:52:03;99373.34;;;20.40;41.38
4410;BME280;2218;51.408;7.208;2023-02-22T08:54:30;99365.31;;;20.42;41.58
4410;BME280;2218;51.408;7.208;2023-02-22T08:56:59;99370.47;;;20.43;41.50
4410;BME280;2218;51.408;7.208;2023-02-22T08:59:25;99367.09;;;20.41;41.39
4410;BME280;2218;51.408;7.208;2023-02-22T09:01:52;99369.63;;;20.43;41.53
4410;BME280;2218;51.408;7.208;2023-02-22T09:04:20;99368.44;;;20.47;41.53
4410;BME280;2218;51.408;7.208;2023-02-22T09:06:46;99361.97;;;20.51;41.44
4410;BME280;2218;51.408;7.208;2023-02-22T09:09:17;99367.00;;;20.54;41.44
4410;BME280;2218;51.408;7.208;2023-02-22T09:11:46;99372.28;;;20.54;41.60
4410;BME280;2218;51.408;7.208;2023-02-22T09:14:14;99363.28;;;20.56;41.61
4410;BME280;2218;51.408;7.208;2023-02-22T09:16:43;99363.16;;;20.58;41.44
4410;BME280;2218;51.408;7.208;2023-02-22T09:19:10;99362.22;;;20.59;41.82
4410;BME280;2218;51.408;7.208;2023-02-22T09:21:38;99360.28;;;20.61;41.37
4410;BME280;2218;51.408;7.208;2023-02-22T09:24:06;99357.50;;;20.62;41.94
4410;BME280;2218;51.408;7.208;2023-02-22T09:26:34;99361.81;;;20.63;41.78
4410;BME280;2218;51.408;7.208;2023-02-22T09:29:05;99357.41;;;20.64;41.81
4410;BME280;2218;51.408;7.208;2023-02-22T09:31:36;99352.81;;;20.66;41.96
4410;BME280;2218;51.408;7.208;2023-02-22T09:34:04;99350.19;;;20.66;42.16
4410;BME280;2218;51.408;7.208;2023-02-22T09:36:39;99349.09;;;20.69;42.10
4410;BME280;2218;51.408;7.208;2023-02-22T09:39:06;99348.97;;;20.70;41.95
4410;BME280;2218;51.408;7.208;2023-02-22T09:41:43;99347.16;;;20.71;41.88
4410;BME280;2218;51.408;7.208;2023-02-22T09:44:23;99342.59;;;20.73;42.08
4410;BME280;2218;51.408;7.208;2023-02-22T09:46:57;99342.47;;;20.74;42.01
4410;BME280;2218;51.408;7.208;2023-02-22T09:49:31;99339.72;;;20.76;42.17
4410;BME280;2218;51.408;7.208;2023-02-22T09:52:09;99332.63;;;20.76;42.19
4410;BME280;2218;51.408;7.208;2023-02-22T09:54:44;99339.56;;;20.77;42.28
4410;BME280;2218;51.408;7.208;2023-02-22T09:57:24;99337.66;;;20.79;42.45
4410;BME280;2218;51.408;7.208;2023-02-22T10:00:03;99331.41;;;20.80;42.48
4410;BME280;2218;51.408;7.208;2023-02-22T10:02:48;99338.38;;;20.81;42.32
4410;BME280;2218;51.408;7.208;2023-02-22T10:05:24;99332.94;;;20.83;42.55
4410;BME280;2218;51.408;7.208;2023-02-22T10:07:58;99336.44;;;20.83;42.61
4410;BME280;2218;51.408;7.208;2023-02-22T10:10:33;99334.53;;;20.85;42.44
4410;BME280;2218;51.408;7.208;2023-02-22T10:13:15;99332.84;;;20.84;42.53
4410;BME280;2218;51.408;7.208;2023-02-22T10:15:55;99331.41;;;20.80;42.22
4410;BME280;2218;51.408;7.208;2023-02-22T10:18:45;99331.41;;;20.80;41.97
4410;BME280;2218;51.408;7.208;2023-02-22T10:21:34;99328.91;;;20.79;41.66
4410;BME280;2218;51.408;7.208;2023-02-22T10:24:19;99329.75;;;20.79;41.45
4410;BME280;2218;51.408;7.208;2023-02-22T10:26:52;99335.03;;;20.79;41.50
4410;BME280;2218;51.408;7.208;2023-02-22T10:29:30;99335.03;;;20.79;41.14
4410;BME280;2218;51.408;7.208;2023-02-22T10:32:02;99337.66;;;20.79;41.26
4410;BME280;2218;51.408;7.208;2023-02-22T10:34:37;99336.94;;;20.77;41.24
4410;BME280;2218;51.408;7.208;2023-02-22T10:37:20;99338.59;;;20.78;40.88
4410;BME280;2218;51.408;7.208;2023-02-22T10:39:50;99335.72;;;20.81;40.94
4410;BME280;2218;51.408;7.208;2023-02-22T10:42:24;99341.84;;;20.82;40.77
4410;BME280;2218;51.408;7.208;2023-02-22T10:44:52;99342.69;;;20.82;40.88
4410;BME280;2218;51.408;7.208;2023-02-22T10:47:19;99339.06;;;20.83;40.37
4410;BME280;2218;51.408;7.208;2023-02-22T10:49:54;99332.84;;;20.84;40.29
4410;BME280;2218;51.408;7.208;2023-02-22T10:52:26;99339.81;;;20.85;40.45
4410;BME280;2218;51.408;7.208;2023-02-22T10:54:57;99333.69;;;20.85;39.96
4410;BME280;2218;51.408;7.208;2023-02-22T10:57:28;99339.81;;;20.85;39.52
4410;BME280;2218;51.408;7.208;2023-02-22T10:59:56;99327.56;;;20.84;39.82
4410;BME280;2218;51.408;7.208;2023-02-22T11:02:29;99327.28;;;20.87;39.82
4410;BME280;2218;51.408;7.208;2023-02-22T11:05:00;99325.38;;;20.89;39.89
4410;BME280;2218;51.408;7.208;2023-02-22T11:07:30;99313.72;;;20.92;40.00
4410;BME280;2218;51.408;7.208;2023-02-22T11:10:00;99320.66;;;20.93;39.93
4410;BME280;2218;51.408;7.208;2023-02-22T11:12:31;99322.38;;;20.94;40.11
4410;BME280;2218;51.408;7.208;2023-02-22T11:15:26;99314.31;;;20.96;40.01
4410;BME280;2218;51.408;7.208;2023-02-22T11:17:56;99315.97;;;20.97;40.07
4410;BME280;2218;51.408;7.208;2023-02-22T11:20:30;99306.13;;;20.99;40.30
4410;BME280;2218;51.408;7.208;2023-02-22T11:23:02;99307.81;;;21.00;40.20
4410;BME280;2218;51.408;7.208;2023-02-22T11:25:35;99301.56;;;21.01;40.30
4410;BME280;2218;51.408;7.208;2023-02-22T11:28:09;99301.56;;;21.01;40.35
4410;BME280;2218;51.408;7.208;2023-02-22T11:30:40;99297.94;;;21.02;40.45
4410;BME280;2218;51.408;7.208;2023-02-22T11:33:17;99289.03;;;21.03;40.60
4410;BME280;2218;51.408;7.208;2023-02-22T11:35:53;99288.09;;;21.04;40.54
4410;BME280;2218;51.408;7.208;2023-02-22T11:38:23;99284.50;;;21.05;40.58
4410;BME280;2218;51.408;7.208;2023-02-22T11:41:12;99286.16;;;21.06;40.50
4410;BME280;2218;51.408;7.208;2023-02-22T11:43:45;99286.03;;;21.07;40.47
4410;BME280;2218;51.408;7.208;2023-02-22T11:46:16;99276.28;;;21.08;40.66
4410;BME280;2218;51.408;7.208;2023-02-22T11:48:55;99273.53;;;21.09;40.66
4410;BME280;2218;51.408;7.208;2023-02-22T11:51:47;99269.09;;;21.10;40.50
4410;BME280;2218;51.408;7.208;2023-02-22T11:54:43;99261.16;;;21.10;40.90
4410;BME280;2218;51.408;7.208;2023-02-22T11:57:29;99264.63;;;21.10;40.72
4410;BME280;2218;51.408;7.208;2023-02-22T12:00:14;99268.81;;;21.13;40.96
4410;BME280;2218;51.408;7.208;2023-02-22T12:03:12;99259.09;;;21.13;40.82
4410;BME280;2218;51.408;7.208;2023-02-22T12:06:02;99270.50;;;21.14;41.01
4410;BME280;2218;51.408;7.208;2023-02-22T12:08:48;99266.06;;;21.14;41.37
4410;BME280;2218;51.408;7.208;2023-02-22T12:11:22;99260.78;;;21.14;41.37
4410;BME280;2218;51.408;7.208;2023-02-22T12:14:08;99265.94;;;21.16;41.30
4410;BME280;2218;51.408;7.208;2023-02-22T12:16:59;99264.94;;;21.17;41.28
4410;BME280;2218;51.408;7.208;2023-02-22T12:19:35;99259.66;;;21.17;41.62
4410;BME280;2218;51.408;7.208;2023-02-22T12:22:09;99249.94;;;21.17;41.26
4410;BME280;2218;51.408;7.208;2023-02-22T12:24:43;99248.13;;;21.18;41.64
4410;BME280;2218;51.408;7.208;2023-02-22T12:27:19;99246.34;;;21.19;41.46
4410;BME280;2218;51.408;7.208;2023-02-22T12:29:57;99243.69;;;21.19;41.36
4410;BME280;2218;51.408;7.208;2023-02-22T12:32:35;99238.28;;;21.20;40.91
4410;BME280;2218;51.408;7.208;2023-02-22T12:35:15;99238.53;;;21.17;41.08
4410;BME280;2218;51.408;7.208;2023-02-22T12:37:58;99240.19;;;21.18;41.20
4410;BME280;2218;51.408;7.208;2023-02-22T12:40:35;99227.97;;;21.17;41.20
4410;BME280;2218;51.408;7.208;2023-02-22T12:43:11;99231.44;;;21.17;40.91
4410;BME280;2218;51.408;7.208;2023-02-22T12:45:46;99229.63;;;21.18;41.17
4410;BME280;2218;51.408;7.208;2023-02-22T12:48:33;99229.63;;;21.18;41.06
4410;BME280;2218;51.408;7.208;2023-02-22T12:51:17;99227.13;;;21.16;41.00
4410;BME280;2218;51.408;7.208;2023-02-22T12:53:54;99222.66;;;21.17;41.15
4410;BME280;2218;51.408;7.208;2023-02-22T12:56:29;99221.00;;;21.16;40.89
4410;BME280;2218;51.408;7.208;2023-02-22T12:59:05;99221.00;;;21.16;41.06
4410;BME280;2218;51.408;7.208;2023-02-22T13:01:38;99221.00;;;21.16;41.13
4410;BME280;2218;51.408;7.208;2023-02-22T13:04:08;99224.63;;;21.15;41.15
4410;BME280;2218;51.408;7.208;2023-02-22T13:06:48;99223.78;;;21.14;40.97
4410;BME280;2218;51.408;7.208;2023-02-22T13:12:38;99222.22;;;21.12;41.05
4410;BME280;2218;51.408;7.208;2023-02-22T13:15:17;99223.06;;;21.12;40.87
4410;BME280;2218;51.408;7.208;2023-02-22T13:17:55;99223.06;;;21.12;41.05
4410;BME280;2218;51.408;7.208;2023-02-22T13:20:33;99222.22;;;21.12;41.16
4410;BME280;2218;51.408;7.208;2023-02-22T13:23:08;99223.19;;;21.11;41.04
4410;BME280;2218;51.408;7.208;2023-02-22T13:25:44;99227.50;;;21.12;40.90
4410;BME280;2218;51.408;7.208;2023-02-22T13:28:23;99227.66;;;21.10;40.95
4410;BME280;2218;51.408;7.208;2023-02-22T13:31:15;99218.06;;;21.09;40.93
4410;BME280;2218;51.408;7.208;2023-02-22T13:34:07;99224.28;;;21.08;41.01
4410;BME280;2218;51.408;7.208;2023-02-22T13:37:00;99220.81;;;21.08;40.95
4410;BME280;2218;51.408;7.208;2023-02-22T13:40:08;99223.44;;;21.08;40.74
4410;BME280;2218;51.408;7.208;2023-02-22T13:43:29;99221.78;;;21.07;40.63
4410;BME280;2218;51.408;7.208;2023-02-22T13:46:30;99229.69;;;21.07;40.84
4410;BME280;2218;51.408;7.208;2023-02-22T13:49:23;99221.91;;;21.05;40.68
4410;BME280;2218;51.408;7.208;2023-02-22T13:51:58;99216.78;;;21.04;39.94
4410;BME280;2218;51.408;7.208;2023-02-22T13:54:35;99224.81;;;21.02;39.64
4410;BME280;2218;51.408;7.208;2023-02-22T13:57:16;99230.91;;;21.03;39.16
4410;BME280;2218;51.408;7.208;2023-02-22T13:59:46;99223.97;;;21.02;38.77
4410;BME280;2218;51.408;7.208;2023-02-22T14:02:33;99230.22;;;21.01;38.69